Time;durP1;ratioP1;P1;durP2;ratioP2;P2;SDS_P1;SDS_P2;PMS_P1;PMS_P2;Temp;Humidity;BMP_temperature;BMP_pressure;BME280_temperature;BME280_humidity;BME280_pressure;Samples;Min_cycle;Max_cycle;Signal;HPM_P1;HPM_P2
2022/12/03 00:02:12;;;;;;;34.00;13.30;;;;;;;-3.05;87.63;101267.92;105003;1292;1002671;-71
2022/12/03 00:05:00;;;;;;;36.10;13.70;;;;;;;-3.05;87.99;101266.20;105130;1286;1003002;-73
2022/12/03 00:07:48;;;;;;;44.40;13.80;;;;;;;-3.03;88.07;101272.10;105724;1294;61581;-73
2022/12/03 00:10:35;;;;;;;38.70;14.30;;;;;;;-3.02;87.89;101276.43;104989;1288;1002481;-71
2022/12/03 00:13:23;;;;;;;34.90;14.00;;;;;;;-3.04;87.65;101278.17;105887;1290;67649;-73
2022/12/03 00:16:11;;;;;;;43.70;15.70;;;;;;;-3.06;87.66;101275.23;105872;1286;73838;-73
2022/12/03 00:18:59;;;;;;;33.30;13.10;;;;;;;-3.01;87.89;101272.78;105868;1292;58694;-74
2022/12/03 00:21:46;;;;;;;35.60;13.00;;;;;;;-2.96;87.89;101269.13;105872;1295;60362;-73
2022/12/03 00:24:34;;;;;;;30.80;11.60;;;;;;;-2.90;87.92;101269.27;105138;1294;1002890;-73
2022/12/03 00:27:22;;;;;;;39.30;14.20;;;;;;;-2.84;87.68;101266.48;105870;1291;66574;-72
2022/12/03 00:30:10;;;;;;;34.80;12.30;;;;;;;-2.80;87.54;101269.93;105122;1292;1002401;-72
2022/12/03 00:32:58;;;;;;;34.50;12.70;;;;;;;-2.79;87.57;101266.13;104931;1298;1002202;-72
2022/12/03 00:35:47;;;;;;;40.00;15.00;;;;;;;-2.76;87.24;101267.48;105716;1289;61200;-73
2022/12/03 00:38:35;;;;;;;40.70;15.50;;;;;;;-2.73;87.15;101264.88;105847;1292;72791;-72
2022/12/03 00:41:22;;;;;;;42.50;14.80;;;;;;;-2.72;86.72;101265.91;105872;1286;67627;-72
2022/12/03 00:44:10;;;;;;;35.90;14.80;;;;;;;-2.71;86.68;101267.13;105742;1286;71235;-74
2022/12/03 00:46:58;;;;;;;41.20;15.80;;;;;;;-2.71;86.48;101267.30;105873;1292;57995;-73
2022/12/03 00:49:46;;;;;;;36.70;14.20;;;;;;;-2.71;86.80;101264.70;105695;1294;61364;-72
2022/12/03 00:52:34;;;;;;;38.00;14.40;;;;;;;-2.67;86.93;101271.11;105879;1292;73850;-72
2022/12/03 00:55:21;;;;;;;38.60;13.20;;;;;;;-2.67;86.62;101266.94;105744;1295;65627;-72
2022/12/03 00:58:09;;;;;;;44.30;16.70;;;;;;;-2.69;86.41;101267.47;105848;1292;73649;-73
2022/12/03 01:00:57;;;;;;;43.40;18.10;;;;;;;-2.72;86.69;101267.31;105862;1292;58521;-73
2022/12/03 01:03:44;;;;;;;46.40;17.80;;;;;;;-2.74;86.65;101272.52;105712;1288;61631;-71
2022/12/03 01:06:32;;;;;;;45.00;18.40;;;;;;;-2.75;86.28;101270.80;105650;1291;73652;-72
2022/12/03 01:09:19;;;;;;;38.90;15.20;;;;;;;-2.76;86.50;101273.58;105871;1285;67512;-73
2022/12/03 01:12:07;;;;;;;48.50;18.50;;;;;;;-2.76;86.23;101272.17;105727;1294;72394;-71
2022/12/03 01:14:55;;;;;;;39.30;15.00;;;;;;;-2.77;86.34;101274.45;105728;1295;58052;-71
2022/12/03 01:17:43;;;;;;;37.90;14.30;;;;;;;-2.81;86.10;101270.12;105885;1293;60311;-72
2022/12/03 01:20:30;;;;;;;44.20;16.60;;;;;;;-2.87;86.36;101267.36;105708;1297;72517;-73
2022/12/03 01:23:18;;;;;;;45.30;18.00;;;;;;;-2.93;86.20;101266.68;105848;1292;68066;-72
2022/12/03 01:26:06;;;;;;;45.30;17.60;;;;;;;-2.96;86.35;101269.65;105844;1292;72396;-71
2022/12/03 01:28:55;;;;;;;47.50;19.10;;;;;;;-2.97;86.35;101269.29;105871;1292;58476;-73
2022/12/03 01:34:54;;;;;;;42.60;16.90;;;;;;;-3.08;86.43;101262.73;105854;1295;74914;-71
2022/12/03 01:37:42;;;;;;;42.90;17.10;;;;;;;-3.12;86.75;101263.96;105009;1294;1002125;-71
2022/12/03 01:40:30;;;;;;;45.10;17.50;;;;;;;-3.14;86.83;101264.30;105739;1295;71039;-71
2022/12/03 01:43:17;;;;;;;43.80;17.40;;;;;;;-3.16;86.96;101258.40;105845;1292;58851;-71
2022/12/03 01:46:05;;;;;;;53.90;19.30;;;;;;;-3.22;87.17;101259.28;105856;1292;61124;-73
2022/12/03 01:48:55;;;;;;;43.80;17.30;;;;;;;-3.21;87.49;101261.01;105850;1284;74060;-72
2022/12/03 01:51:43;;;;;;;49.60;19.40;;;;;;;-3.19;87.52;101257.37;105741;1293;67607;-72
2022/12/03 01:54:38;;;;;;;44.10;18.50;;;;;;;-3.17;87.57;101255.96;105852;1284;72720;-71
2022/12/03 01:57:51;;;;;;;46.20;18.70;;;;;;;-3.17;87.56;101257.70;105747;1292;58006;-72
2022/12/03 02:00:40;;;;;;;50.00;18.90;;;;;;;-3.20;87.73;101254.75;105850;1290;61740;-72
2022/12/03 02:03:27;;;;;;;43.10;18.10;;;;;;;-3.22;87.81;101247.65;105747;1292;74922;-71
2022/12/03 02:06:18;;;;;;;40.10;14.90;;;;;;;-3.26;88.26;101245.57;104382;1292;1002591;-72
2022/12/03 02:09:08;;;;;;;48.80;20.70;;;;;;;-3.32;88.65;101239.85;105843;1290;72617;-72
2022/12/03 02:11:56;;;;;;;50.30;20.40;;;;;;;-3.34;88.98;101244.20;105847;1291;58487;-71
2022/12/03 02:14:44;;;;;;;55.10;20.40;;;;;;;-3.39;89.39;101238.48;105886;1295;60133;-71
2022/12/03 02:17:32;;;;;;;53.10;20.10;;;;;;;-3.44;89.69;101239.18;105128;1295;1002054;-71
2022/12/03 02:20:20;;;;;;;54.00;21.50;;;;;;;-3.49;89.94;101238.66;105879;1294;67717;-72
2022/12/03 02:23:22;;;;;;;55.00;18.90;;;;;;;-3.55;90.10;101241.10;105853;1292;73518;-71
2022/12/03 02:26:10;;;;;;;41.50;16.80;;;;;;;-3.53;90.34;101239.02;105841;1294;59983;-72
2022/12/03 02:28:58;;;;;;;41.30;15.40;;;;;;;-3.51;90.43;101235.88;105894;1292;58002;-72
2022/12/03 02:31:46;;;;;;;44.30;16.60;;;;;;;-3.49;90.46;101235.02;105857;1279;73848;-71
2022/12/03 02:34:44;;;;;;;48.60;18.30;;;;;;;-3.44;90.47;101231.20;105875;1296;66818;-72
2022/12/03 02:37:36;;;;;;;42.50;17.40;;;;;;;-3.40;90.63;101233.96;105741;1300;73674;-70
2022/12/03 02:40:27;;;;;;;39.80;15.70;;;;;;;-3.39;90.54;101227.20;105121;1291;1002918;-71
2022/12/03 02:43:18;;;;;;;41.80;15.70;;;;;;;-3.36;90.59;101226.16;105851;1291;61569;-72
2022/12/03 02:46:07;;;;;;;44.60;16.40;;;;;;;-3.34;90.45;101226.84;105725;1295;74949;-72
2022/12/03 02:48:54;;;;;;;46.70;18.00;;;;;;;-3.30;90.62;101222.50;105733;1288;67506;-71
2022/12/03 02:51:42;;;;;;;46.40;18.60;;;;;;;-3.23;90.66;101226.98;105849;1288;73914;-71
2022/12/03 02:54:30;;;;;;;41.30;15.60;;;;;;;-3.17;90.46;101225.41;105706;1292;59538;-71
2022/12/03 02:57:19;;;;;;;44.60;17.80;;;;;;;-3.14;90.21;101224.89;105869;1292;60031;-72
2022/12/03 03:00:09;;;;;;;48.40;17.10;;;;;;;-3.13;90.06;101224.54;105734;1292;75046;-72
2022/12/03 03:02:57;;;;;;;37.00;14.50;;;;;;;-3.13;89.90;101223.15;105163;1284;1002383;-71
2022/12/03 03:05:46;;;;;;;38.60;14.70;;;;;;;-3.11;90.12;101226.44;105851;1290;73661;-72
2022/12/03 03:08:36;;;;;;;43.50;16.30;;;;;;;-3.09;89.95;101231.12;105853;1288;58632;-72
2022/12/03 03:11:25;;;;;;;43.40;15.30;;;;;;;-3.11;89.88;101228.17;105853;1292;61522;-72
2022/12/03 03:14:12;;;;;;;46.10;17.90;;;;;;;-3.14;89.78;101231.14;105128;1292;1002395;-72
2022/12/03 03:17:00;;;;;;;50.20;18.70;;;;;;;-3.14;89.84;101231.66;105880;1292;67744;-73
2022/12/03 03:19:48;;;;;;;49.40;18.00;;;;;;;-3.15;89.64;101229.41;105847;1284;72496;-72
2022/12/03 03:22:40;;;;;;;44.30;18.00;;;;;;;-3.20;89.35;101230.11;105728;1300;58078;-72
2022/12/03 03:25:28;;;;;;;44.10;16.70;;;;;;;-3.22;89.83;101228.73;105891;1285;60296;-72
2022/12/03 03:28:16;;;;;;;47.70;17.60;;;;;;;-3.19;89.93;101225.95;105766;1288;73572;-72
2022/12/03 03:31:06;;;;;;;49.10;17.80;;;;;;;-3.17;89.68;101225.59;105757;1292;65613;-72
2022/12/03 03:33:55;;;;;;;53.50;18.40;;;;;;;-3.24;89.10;101220.22;105742;1296;71505;-72
2022/12/03 03:36:43;;;;;;;50.50;17.70;;;;;;;-3.31;88.93;101219.38;105715;1292;58077;-73
2022/12/03 03:39:31;;;;;;;42.40;14.70;;;;;;;-3.37;89.36;101214.88;105891;1292;58055;-71
2022/12/03 03:42:22;;;;;;;42.10;15.90;;;;;;;-3.37;89.61;101212.27;105885;1292;73737;-72
2022/12/03 03:45:10;;;;;;;44.10;17.30;;;;;;;-3.46;89.21;101216.44;105882;1292;67665;-71
2022/12/03 03:47:59;;;;;;;44.00;16.40;;;;;;;-3.51;89.67;101216.10;105853;1284;71352;-71
2022/12/03 03:50:48;;;;;;;51.10;17.50;;;;;;;-3.63;89.91;101211.42;105617;1292;58043;-70
2022/12/03 03:53:44;;;;;;;53.50;17.50;;;;;;;-3.66;89.94;101212.13;105778;1295;60038;-72
2022/12/03 03:56:33;;;;;;;48.60;17.10;;;;;;;-3.66;90.11;101210.05;104260;1292;1002730;-71
2022/12/03 03:59:21;;;;;;;55.80;18.70;;;;;;;-3.65;90.14;101210.04;105741;1286;68077;-71
2022/12/03 04:02:23;;;;;;;49.40;18.40;;;;;;;-3.64;89.95;101206.75;105843;1285;71467;-71
2022/12/03 04:05:22;;;;;;;49.40;16.70;;;;;;;-3.73;90.04;101205.89;105750;1295;58060;-72
2022/12/03 04:08:10;;;;;;;58.30;19.80;;;;;;;-3.76;90.14;101206.25;105890;1291;58892;-71
2022/12/03 04:14:04;;;;;;;52.30;18.90;;;;;;;-3.96;90.78;101202.77;105863;1292;66454;-71
2022/12/03 04:16:52;;;;;;;52.40;19.50;;;;;;;-4.01;91.40;101200.52;105111;1292;1002584;-70
2022/12/03 04:19:39;;;;;;;52.50;18.10;;;;;;;-4.04;91.39;101194.79;105869;1298;59761;-69
2022/12/03 04:22:39;;;;;;;45.80;15.80;;;;;;;-3.99;91.56;101194.97;105889;1292;60018;-69
2022/12/03 04:28:49;;;;;;;54.10;18.50;;;;;;;-3.96;91.46;101190.11;105859;1292;67622;-69
2022/12/03 04:37:49;;;;;;;53.20;17.50;;;;;;;-3.86;91.36;101191.67;105753;1295;61414;-70
2022/12/03 04:46:50;;;;;;;49.50;16.60;;;;;;;-3.82;91.13;101185.94;105857;1292;72359;-70
2022/12/03 04:49:41;;;;;;;45.60;15.40;;;;;;;-3.80;91.07;101185.61;105868;1294;58550;-70
2022/12/03 04:52:29;;;;;;;52.40;17.30;;;;;;;-3.76;91.49;101185.93;105870;1285;60347;-71
2022/12/03 04:55:18;;;;;;;50.00;15.80;;;;;;;-3.71;91.06;101178.99;105111;1293;1002099;-70
2022/12/03 04:58:06;;;;;;;46.30;15.80;;;;;;;-3.66;91.16;101177.77;105739;1292;67501;-71
2022/12/03 05:00:53;;;;;;;47.90;15.70;;;;;;;-3.58;91.11;101177.25;105859;1285;73661;-70
2022/12/03 05:03:41;;;;;;;52.10;17.70;;;;;;;-3.52;90.81;101178.45;105849;1295;58550;-70
2022/12/03 05:06:29;;;;;;;48.60;18.20;;;;;;;-3.50;90.23;101178.09;105851;1284;61159;-71
2022/12/03 05:09:17;;;;;;;44.60;14.90;;;;;;;-3.54;90.17;101177.77;105861;1285;74818;-71
2022/12/03 05:12:05;;;;;;;55.80;17.60;;;;;;;-3.56;90.22;101177.23;105871;1286;68627;-70
2022/12/03 05:14:53;;;;;;;51.90;18.40;;;;;;;-3.57;90.12;101177.42;105858;1291;72470;-71
2022/12/03 05:17:41;;;;;;;51.60;18.40;;;;;;;-3.65;90.60;101179.85;105734;1301;58714;-71
2022/12/03 05:20:40;;;;;;;60.50;17.60;;;;;;;-3.69;90.68;101183.16;105889;1286;59993;-70
2022/12/03 05:23:28;;;;;;;53.90;18.70;;;;;;;-3.73;91.14;101183.17;105852;1287;74709;-70
2022/12/03 05:26:16;;;;;;;43.30;15.20;;;;;;;-3.78;91.16;101180.05;105877;1293;67673;-70
2022/12/03 05:29:03;;;;;;;59.30;18.50;;;;;;;-3.85;91.24;101174.34;105863;1292;71212;-69
2022/12/03 05:31:51;;;;;;;52.70;19.00;;;;;;;-3.89;91.35;101172.42;105875;1284;58024;-69
2022/12/03 05:34:38;;;;;;;60.20;18.70;;;;;;;-3.98;92.13;101170.86;105873;1291;61482;-70
2022/12/03 05:37:26;;;;;;;46.80;15.50;;;;;;;-4.03;92.56;101172.42;105869;1292;73595;-71
2022/12/03 05:40:14;;;;;;;46.80;17.50;;;;;;;-4.04;92.48;101176.58;105865;1292;67778;-70
2022/12/03 05:43:03;;;;;;;51.10;19.10;;;;;;;-4.01;92.57;101177.11;105837;1293;72475;-70
2022/12/03 05:45:51;;;;;;;50.80;17.40;;;;;;;-4.05;92.68;101176.94;105884;1293;57937;-69
2022/12/03 05:48:38;;;;;;;47.30;15.30;;;;;;;-4.09;92.73;101172.77;105719;1298;202210;-69
2022/12/03 05:51:26;;;;;;;54.40;17.90;;;;;;;-4.11;92.68;101171.55;105889;1292;72252;-71
2022/12/03 05:54:13;;;;;;;49.20;16.60;;;;;;;-4.13;92.85;101173.11;105856;1292;68651;-70
2022/12/03 05:57:01;;;;;;;51.40;16.20;;;;;;;-4.15;93.03;101173.11;105711;1294;73840;-71
2022/12/03 05:59:49;;;;;;;50.90;18.40;;;;;;;-4.18;92.99;101173.11;105779;1293;59543;-73
2022/12/03 06:02:37;;;;;;;47.70;17.10;;;;;;;-4.21;93.08;101169.66;105819;1291;61329;-70
2022/12/03 06:05:25;;;;;;;49.40;17.70;;;;;;;-4.23;93.73;101175.19;105822;1292;74867;-70
2022/12/03 06:08:12;;;;;;;49.90;16.80;;;;;;;-4.24;93.63;101175.02;105846;1292;67924;-72
2022/12/03 06:11:00;;;;;;;52.80;18.80;;;;;;;-4.33;94.43;101174.31;105849;1292;72616;-71
2022/12/03 06:13:47;;;;;;;49.10;16.90;;;;;;;-4.36;94.35;101175.35;105837;1292;59850;-72
2022/12/03 06:16:35;;;;;;;55.10;16.20;;;;;;;-4.40;94.83;101173.95;105810;1294;60111;-72
2022/12/03 06:19:23;;;;;;;51.90;17.30;;;;;;;-4.37;95.07;101173.27;105812;1292;73799;-73
2022/12/03 06:22:11;;;;;;;52.40;17.90;;;;;;;-4.34;95.20;101170.84;105849;1292;69041;-72
2022/12/03 06:24:58;;;;;;;53.30;17.40;;;;;;;-4.31;94.91;101168.42;105705;1288;72389;-74
2022/12/03 06:27:53;;;;;;;43.10;14.50;;;;;;;-4.26;94.94;101169.12;105837;1291;58074;-74
2022/12/03 06:30:41;;;;;;;52.90;17.90;;;;;;;-4.22;95.20;101166.17;105851;1285;58165;-72
2022/12/03 06:33:28;;;;;;;56.30;17.80;;;;;;;-4.22;95.48;101165.66;105828;1290;74600;-73
2022/12/03 06:36:16;;;;;;;50.60;17.70;;;;;;;-4.15;95.76;101171.02;105844;1292;66540;-72
2022/12/03 06:39:09;;;;;;;53.80;17.90;;;;;;;-4.08;95.68;101180.74;105817;1300;73507;-72
2022/12/03 06:41:57;;;;;;;49.60;16.90;;;;;;;-4.06;95.46;101183.36;105856;1294;58069;-71
2022/12/03 06:44:44;;;;;;;50.00;17.00;;;;;;;-4.04;95.44;101181.97;105878;1292;59127;-71
2022/12/03 06:47:32;;;;;;;42.80;15.70;;;;;;;-4.08;95.35;101183.52;105837;1292;74937;-74
2022/12/03 06:50:20;;;;;;;53.20;17.20;;;;;;;-4.12;94.76;101181.09;105849;1295;67976;-71
2022/12/03 06:53:07;;;;;;;46.00;16.70;;;;;;;-4.12;94.91;101181.96;105821;1292;72614;-72
2022/12/03 06:55:55;;;;;;;44.90;15.70;;;;;;;-4.14;94.39;101180.20;105721;1292;59614;-73
2022/12/03 06:58:43;;;;;;;41.50;13.90;;;;;;;-4.13;94.28;101178.65;105824;1278;61350;-72
2022/12/03 07:01:30;;;;;;;44.20;16.10;;;;;;;-4.13;93.97;101179.70;105858;1292;75190;-71
2022/12/03 07:04:18;;;;;;;43.70;16.50;;;;;;;-4.14;93.78;101184.73;105889;1285;67560;-71
2022/12/03 07:07:06;;;;;;;44.50;16.50;;;;;;;-4.18;93.38;101181.95;105827;1290;73728;-72
2022/12/03 07:09:54;;;;;;;41.60;16.00;;;;;;;-4.18;93.52;101180.05;105827;1286;58686;-72
2022/12/03 07:12:42;;;;;;;39.20;14.60;;;;;;;-4.18;93.23;101179.87;105820;1292;59306;-71
2022/12/03 07:15:29;;;;;;;39.20;13.80;;;;;;;-4.13;93.30;101180.40;105825;1292;73879;-72
2022/12/03 07:18:17;;;;;;;37.90;12.80;;;;;;;-4.08;92.81;101182.66;105876;1292;67756;-74
2022/12/03 07:21:05;;;;;;;34.20;11.50;;;;;;;-4.04;92.36;101183.01;105846;1300;73555;-73
2022/12/03 07:23:52;;;;;;;36.40;14.00;;;;;;;-4.01;91.59;101179.36;105827;1300;58122;-74
2022/12/03 07:26:40;;;;;;;40.20;14.30;;;;;;;-4.00;91.12;101175.73;105861;1292;58730;-73
2022/12/03 07:29:28;;;;;;;33.90;12.30;;;;;;;-4.00;90.96;101177.11;105830;1293;74577;-72
2022/12/03 07:32:16;;;;;;;41.00;15.00;;;;;;;-3.99;90.39;101178.48;105835;1292;68673;-75
2022/12/03 07:35:06;;;;;;;39.60;14.40;;;;;;;-4.00;90.13;101179.54;105818;1299;73419;-73
2022/12/03 07:37:54;;;;;;;39.40;14.40;;;;;;;-4.01;90.12;101178.66;105880;1292;58112;-73
2022/12/03 07:40:42;;;;;;;40.60;14.70;;;;;;;-4.00;90.19;101176.76;105867;1292;60591;-74
2022/12/03 07:43:29;;;;;;;42.70;16.30;;;;;;;-4.00;90.79;101173.13;105143;1291;1002299;-72
2022/12/03 07:46:16;;;;;;;40.90;14.80;;;;;;;-4.03;90.53;101166.36;105778;1291;68920;-74
2022/12/03 07:49:04;;;;;;;44.10;15.60;;;;;;;-4.05;90.50;101167.75;105774;1288;70143;-73
2022/12/03 07:51:55;;;;;;;37.60;13.80;;;;;;;-4.06;90.38;101168.79;105753;1295;58803;-73
2022/12/03 07:54:43;;;;;;;42.90;15.10;;;;;;;-4.03;90.64;101171.55;105868;1290;60585;-72
2022/12/03 07:57:31;;;;;;;38.40;14.10;;;;;;;-4.00;90.27;101170.02;105865;1290;72558;-73
2022/12/03 08:00:19;;;;;;;41.90;14.70;;;;;;;-3.97;90.00;101176.08;105858;1292;66884;-73
2022/12/03 08:03:07;;;;;;;35.60;13.80;;;;;;;-3.93;90.05;101175.02;105858;1292;72505;-73
2022/12/03 08:05:55;;;;;;;44.60;17.00;;;;;;;-3.94;89.43;101176.23;105851;1290;57895;-72
2022/12/03 08:08:42;;;;;;;40.10;14.90;;;;;;;-3.93;89.44;101173.11;105861;1284;61164;-74
2022/12/03 08:11:32;;;;;;;40.90;14.70;;;;;;;-3.93;89.13;101168.09;105901;1291;74673;-76
2022/12/03 08:14:19;;;;;;;36.30;13.30;;;;;;;-3.91;88.94;101170.70;105101;1288;1002197;-74
2022/12/03 08:17:14;;;;;;;43.60;15.00;;;;;;;-3.90;89.24;101172.77;105778;1294;71711;-73
2022/12/03 08:20:12;;;;;;;40.00;14.60;;;;;;;-3.86;89.04;101172.23;105717;1295;58017;-72
2022/12/03 08:23:05;;;;;;;38.10;13.80;;;;;;;-3.83;89.32;101176.41;105157;1291;1002297;-74
2022/12/03 08:25:53;;;;;;;43.70;16.00;;;;;;;-3.83;89.10;101175.20;105779;1292;74951;-73
2022/12/03 08:28:40;;;;;;;30.20;10.80;;;;;;;-3.77;89.54;101173.28;105871;1292;67845;-73
2022/12/03 08:31:31;;;;;;;36.50;13.30;;;;;;;-3.62;90.89;101164.59;105874;1286;72306;-72
2022/12/03 08:34:25;;;;;;;39.60;13.40;;;;;;;-3.51;89.99;101168.73;105886;1292;57991;-73
2022/12/03 08:37:17;;;;;;;37.40;14.80;;;;;;;-3.45;88.73;101168.55;105884;1292;60309;-73
2022/12/03 08:40:39;;;;;;;38.80;14.90;;;;;;;-3.44;88.83;101166.47;105765;1296;72581;-73
2022/12/03 08:43:32;;;;;;;41.00;14.30;;;;;;;-3.44;88.56;101164.20;105860;1298;68747;-73
2022/12/03 08:46:20;;;;;;;39.10;14.30;;;;;;;-3.42;88.92;101157.79;105720;1295;73743;-75
2022/12/03 08:49:08;;;;;;;40.40;14.50;;;;;;;-3.41;88.53;101161.95;105709;1300;59584;-76
2022/12/03 08:51:59;;;;;;;37.30;13.40;;;;;;;-3.37;88.84;101158.98;105840;1294;58663;-74
2022/12/03 08:54:54;;;;;;;39.20;15.10;;;;;;;-3.30;88.55;101160.35;105649;1297;74765;-75
2022/12/03 08:57:43;;;;;;;32.30;10.90;;;;;;;-3.18;88.72;101155.98;105735;1292;67834;-73
2022/12/03 09:00:31;;;;;;;36.30;13.30;;;;;;;-3.11;88.06;101161.33;105713;1295;73713;-72
2022/12/03 09:03:19;;;;;;;35.50;13.90;;;;;;;-3.05;88.02;101156.96;105752;1295;58115;-74
2022/12/03 09:06:07;;;;;;;34.20;14.10;;;;;;;-3.03;87.83;101157.48;105087;1285;1002511;-72
2022/12/03 09:08:55;;;;;;;33.30;13.60;;;;;;;-3.09;87.17;101158.90;105121;1296;1002544;-73
2022/12/03 09:11:43;;;;;;;37.10;13.80;;;;;;;-3.17;87.47;101161.17;105859;1290;66296;-73
2022/12/03 09:14:30;;;;;;;35.30;15.00;;;;;;;-3.21;87.94;101162.59;105083;1294;1002002;-72
2022/12/03 09:17:18;;;;;;;35.50;14.10;;;;;;;-3.22;88.10;101160.67;105823;1291;58010;-73
2022/12/03 09:20:07;;;;;;;32.40;13.00;;;;;;;-3.19;88.35;101162.05;105858;1292;60161;-72
2022/12/03 09:22:54;;;;;;;30.40;12.00;;;;;;;-3.12;88.53;101160.64;104974;1295;1002398;-73
2022/12/03 09:25:42;;;;;;;36.10;14.60;;;;;;;-3.12;87.79;101157.34;105143;1290;1002538;-72
2022/12/03 09:28:30;;;;;;;36.40;13.40;;;;;;;-3.17;87.77;101155.80;105827;1287;71640;-73
2022/12/03 09:31:18;;;;;;;31.00;12.30;;;;;;;-3.18;88.02;101151.11;105849;1291;58001;-72
2022/12/03 09:34:08;;;;;;;32.70;13.20;;;;;;;-3.16;88.35;101150.92;105091;1287;1002663;-72
2022/12/03 09:36:56;;;;;;;35.20;13.80;;;;;;;-3.19;88.33;101147.12;105074;1291;1002132;-74
2022/12/03 09:39:44;;;;;;;35.20;14.70;;;;;;;-3.23;88.18;101144.70;105125;1290;1002791;-73
2022/12/03 09:42:32;;;;;;;33.00;13.30;;;;;;;-3.30;88.38;101142.13;105855;1292;72423;-74
2022/12/03 09:45:20;;;;;;;37.40;13.50;;;;;;;-3.33;88.72;101136.41;105910;1291;57979;-73
2022/12/03 09:48:11;;;;;;;32.50;13.10;;;;;;;-3.32;89.27;101136.05;105880;1284;61438;-74
2022/12/03 09:51:00;;;;;;;38.10;13.90;;;;;;;-3.31;89.10;101133.80;104982;1292;1002232;-73
2022/12/03 09:53:48;;;;;;;32.80;13.10;;;;;;;-3.27;89.26;101131.52;105134;1291;1002318;-72
2022/12/03 09:56:36;;;;;;;34.30;12.90;;;;;;;-3.26;88.87;101130.65;105891;1291;73980;-74
2022/12/03 09:59:30;;;;;;;32.90;8.80;;;;;;;-3.17;89.54;101136.52;105787;1295;58086;-74
2022/12/03 10:02:28;;;;;;;35.30;13.00;;;;;;;-3.09;88.95;101133.02;105697;1292;60450;-75
2022/12/03 10:05:21;;;;;;;29.70;13.20;;;;;;;-3.07;88.62;101134.23;105790;1295;74846;-73
2022/12/03 10:08:19;;;;;;;30.80;12.60;;;;;;;-3.09;88.38;101129.73;105878;1291;68697;-75
2022/12/03 10:11:07;;;;;;;31.30;11.80;;;;;;;-3.04;89.44;101127.44;105743;1292;72533;-74
2022/12/03 10:13:56;;;;;;;24.70;10.10;;;;;;;-2.97;88.92;101122.55;105868;1291;58084;-73
2022/12/03 10:16:44;;;;;;;32.40;12.90;;;;;;;-2.95;88.31;101124.27;105739;1292;60433;-74
2022/12/03 10:19:36;;;;;;;33.60;13.00;;;;;;;-2.95;87.96;101124.96;105932;1284;72569;-72
2022/12/03 10:22:23;;;;;;;31.80;13.40;;;;;;;-2.99;87.65;101123.59;105781;1292;66668;-73
2022/12/03 10:25:16;;;;;;;32.10;14.20;;;;;;;-3.00;87.62;101121.35;105875;1292;72424;-74
2022/12/03 10:28:04;;;;;;;28.70;11.10;;;;;;;-3.01;87.67;101116.48;105794;1295;57971;-73
2022/12/03 10:30:55;;;;;;;27.50;9.10;;;;;;;-2.98;87.79;101115.24;105881;1292;61192;-75
2022/12/03 10:33:46;;;;;;;32.90;12.20;;;;;;;-2.99;87.43;101115.77;105892;1292;73884;-74
2022/12/03 10:36:33;;;;;;;32.00;13.10;;;;;;;-2.97;87.27;101114.89;105727;1294;67986;-73
2022/12/03 10:39:21;;;;;;;34.80;13.40;;;;;;;-2.97;87.21;101109.69;105905;1292;72940;-75
2022/12/03 10:42:15;;;;;;;36.60;14.00;;;;;;;-2.93;87.08;101107.77;105874;1297;59835;-73
2022/12/03 10:45:21;;;;;;;30.30;12.50;;;;;;;-2.91;86.79;101116.95;105838;1271;61498;-74
2022/12/03 10:48:12;;;;;;;29.00;12.00;;;;;;;-2.95;86.32;101114.36;105123;1293;1002395;-74
2022/12/03 10:51:02;;;;;;;34.80;13.80;;;;;;;-2.95;86.61;101107.95;105858;1290;68936;-75
2022/12/03 10:53:50;;;;;;;31.60;12.00;;;;;;;-2.93;86.62;101109.33;105108;1290;1002317;-73
2022/12/03 10:56:37;;;;;;;26.70;11.20;;;;;;;-2.93;86.49;101103.08;105142;1290;1002644;-73
2022/12/03 10:59:31;;;;;;;39.80;14.10;;;;;;;-2.90;86.81;101100.45;105847;1295;59110;-72
2022/12/03 11:02:22;;;;;;;30.90;12.30;;;;;;;-2.90;86.52;101100.96;105835;1291;72477;-73
2022/12/03 11:05:20;;;;;;;36.40;13.70;;;;;;;-2.88;86.98;101099.92;105838;1298;67481;-72
2022/12/03 11:08:22;;;;;;;31.20;11.80;;;;;;;-2.85;86.88;101099.20;105714;1302;73957;-72
2022/12/03 11:11:23;;;;;;;38.20;15.60;;;;;;;-2.83;86.54;101101.80;105848;1290;58064;-72
2022/12/03 11:14:11;;;;;;;34.70;14.90;;;;;;;-2.91;86.84;101100.46;105758;1287;60017;-73
2022/12/03 11:17:06;;;;;;;39.00;14.40;;;;;;;-2.93;87.29;101096.29;105849;1292;72563;-74
2022/12/03 11:19:54;;;;;;;34.60;13.80;;;;;;;-2.91;87.64;101094.89;105694;1289;68701;-73
2022/12/03 11:22:47;;;;;;;39.60;14.70;;;;;;;-2.85;88.09;101088.96;105833;1292;73680;-76
2022/12/03 11:25:49;;;;;;;44.90;15.30;;;;;;;-2.76;88.54;101086.81;105696;1286;58515;-74
2022/12/03 11:28:53;;;;;;;35.40;14.20;;;;;;;-2.65;88.94;101088.65;105873;1291;58746;-73
2022/12/03 11:31:45;;;;;;;37.40;14.60;;;;;;;-2.59;88.15;101089.48;104988;1294;1002229;-74
2022/12/03 11:34:33;;;;;;;38.10;14.60;;;;;;;-2.57;88.30;101089.65;105737;1287;67594;-74
2022/12/03 11:37:22;;;;;;;31.70;12.10;;;;;;;-2.56;88.51;101089.30;105836;1295;73771;-73
2022/12/03 11:40:16;;;;;;;30.40;12.20;;;;;;;-2.55;88.80;101084.77;105728;1295;58056;-76
2022/12/03 11:43:04;;;;;;;37.70;15.10;;;;;;;-2.54;88.72;101083.36;105804;1294;58709;-75
2022/12/03 11:45:51;;;;;;;48.60;17.10;;;;;;;-2.56;88.99;101081.30;105878;1292;74744;-74
2022/12/03 11:48:48;;;;;;;45.40;16.80;;;;;;;-2.55;89.14;101076.77;105882;1291;68801;-73
2022/12/03 11:51:35;;;;;;;44.10;18.30;;;;;;;-2.51;89.15;101072.23;105768;1298;73607;-76
2022/12/03 11:54:23;;;;;;;44.10;16.90;;;;;;;-2.50;88.70;101070.81;105858;1289;58127;-71
2022/12/03 11:57:30;;;;;;;42.70;14.50;;;;;;;-2.45;89.47;101068.35;105812;1292;61407;-71
2022/12/03 12:00:23;;;;;;;47.60;18.70;;;;;;;-2.36;89.80;101066.38;105863;1292;73542;-71
2022/12/03 12:03:24;;;;;;;42.90;17.60;;;;;;;-2.28;89.21;101060.73;105894;1292;68741;-70
2022/12/03 12:06:20;;;;;;;43.90;17.80;;;;;;;-2.27;87.95;101061.24;105496;1295;73945;-70
2022/12/03 12:09:10;;;;;;;44.80;17.40;;;;;;;-2.29;87.29;101056.23;105827;1292;58053;-71
2022/12/03 12:12:17;;;;;;;43.80;17.50;;;;;;;-2.36;87.27;101057.50;105825;1297;61174;-70
2022/12/03 12:15:42;;;;;;;41.30;17.60;;;;;;;-2.37;88.11;101053.86;105685;1294;74824;-69
2022/12/03 12:18:47;;;;;;;46.10;17.90;;;;;;;-2.36;87.86;101055.08;105839;1293;68889;-71
2022/12/03 12:21:47;;;;;;;48.80;18.00;;;;;;;-2.41;88.14;101053.19;105826;1293;71296;-70
2022/12/03 12:24:47;;;;;;;41.50;16.30;;;;;;;-2.44;88.35;101053.58;105722;1294;58452;-70
2022/12/03 12:27:44;;;;;;;39.80;14.50;;;;;;;-2.46;88.71;101045.75;105830;1298;59273;-70
2022/12/03 12:30:32;;;;;;;45.50;18.20;;;;;;;-2.43;88.75;101039.83;105856;1299;73728;-69
2022/12/03 12:33:23;;;;;;;41.90;16.20;;;;;;;-2.42;88.98;101039.64;105775;1292;67232;-72
2022/12/03 12:36:11;;;;;;;41.60;16.50;;;;;;;-2.42;88.82;101039.99;105705;1292;72415;-70
2022/12/03 12:39:06;;;;;;;45.40;18.00;;;;;;;-2.47;88.67;101037.24;105877;1292;59584;-72
2022/12/03 12:41:54;;;;;;;37.30;15.30;;;;;;;-2.45;89.51;101038.98;105781;1293;60072;-70
2022/12/03 12:44:43;;;;;;;41.60;15.50;;;;;;;-2.44;89.28;101039.14;105042;1294;1002199;-70
2022/12/03 12:47:31;;;;;;;39.00;15.90;;;;;;;-2.41;88.89;101038.60;105871;1275;66225;-70
2022/12/03 12:50:22;;;;;;;39.30;15.50;;;;;;;-2.39;88.59;101038.58;105788;1287;72667;-72
2022/12/03 12:53:10;;;;;;;39.60;15.10;;;;;;;-2.38;88.56;101035.62;105885;1291;58178;-73
2022/12/03 12:56:10;;;;;;;39.00;14.60;;;;;;;-2.40;88.62;101034.41;105928;1290;58648;-71
2022/12/03 12:59:12;;;;;;;39.70;15.50;;;;;;;-2.41;88.32;101030.60;105150;1292;1002173;-70
2022/12/03 13:02:00;;;;;;;37.60;14.80;;;;;;;-2.41;88.73;101027.65;105783;1295;68713;-71
2022/12/03 13:04:55;;;;;;;41.40;16.50;;;;;;;-2.37;88.94;101028.65;105844;1298;71515;-71